Time;durP1;ratioP1;P1;durP2;ratioP2;P2;SDS_P1;SDS_P2;PMS_P1;PMS_P2;Temp;Humidity;BMP_temperature;BMP_pressure;BME280_temperature;BME280_humidity;BME280_pressure;Samples;Min_cycle;Max_cycle;Signal;HPM_P1;HPM_P2
2022/06/07 00:01:08;;;;;;;18.90;6.25;;;26.60;69.70;;;;;;4995698;28;20463;-75
2022/06/07 00:03:34;;;;;;;20.88;6.18;;;26.60;69.40;;;;;;4995744;28;20065;-74
2022/06/07 00:06:01;;;;;;;16.48;5.72;;;26.50;69.30;;;;;;4996730;28;20046;-74
2022/06/07 00:08:28;;;;;;;24.02;7.35;;;26.60;69.30;;;;;;4995734;28;20030;-76
2022/06/07 00:10:54;;;;;;;17.88;6.28;;;26.50;69.30;;;;;;4993263;28;20428;-78
2022/06/07 00:13:23;;;;;;;18.95;6.35;;;26.50;69.50;;;;;;4997962;28;20026;-74
2022/06/07 00:15:48;;;;;;;16.48;6.15;;;26.50;69.10;;;;;;4994647;28;20105;-74
2022/06/07 00:18:14;;;;;;;20.38;6.63;;;26.50;69.30;;;;;;4994511;28;20533;-75
2022/06/07 00:20:42;;;;;;;17.23;5.63;;;26.50;69.50;;;;;;4994473;28;20378;-78
2022/06/07 00:23:11;;;;;;;20.75;7.00;;;26.50;69.70;;;;;;4994693;28;20061;-75
2022/06/07 00:25:38;;;;;;;18.38;6.65;;;26.50;69.70;;;;;;4993061;28;20018;-74
2022/06/07 00:28:04;;;;;;;15.75;6.32;;;26.50;69.80;;;;;;4994308;28;20035;-81
2022/06/07 00:30:31;;;;;;;20.23;6.90;;;26.40;69.90;;;;;;4994371;28;20103;-76
2022/06/07 00:32:57;;;;;;;22.70;6.35;;;26.40;70.10;;;;;;4994451;28;20387;-75
2022/06/07 00:35:24;;;;;;;17.52;5.75;;;26.30;70.40;;;;;;4993014;28;20034;-77
2022/06/07 00:37:50;;;;;;;21.10;6.55;;;26.30;70.60;;;;;;4994060;28;20027;-75
2022/06/07 00:40:15;;;;;;;19.02;6.10;;;26.30;70.70;;;;;;4992640;28;20049;-74
2022/06/07 00:42:43;;;;;;;14.90;6.15;;;26.20;71.00;;;;;;4993902;28;20402;-76
2022/06/07 00:45:18;;;;;;;24.60;7.40;;;26.20;71.40;;;;;;4993888;28;20076;-73
2022/06/07 00:47:46;;;;;;;15.60;6.43;;;26.20;71.90;;;;;;4993910;28;20066;-75
2022/06/07 00:50:49;;;;;;;39.70;6.68;;;26.10;72.10;;;;;;4976491;28;20054;-76
2022/06/07 00:53:28;;;;;;;16.25;6.38;;;26.10;71.30;;;;;;4994591;28;20031;-75
2022/06/07 00:55:54;;;;;;;18.52;6.25;;;26.10;71.20;;;;;;4995143;28;20105;-82
2022/06/07 00:58:21;;;;;;;15.85;6.00;;;26.10;72.50;;;;;;4994367;28;20034;-78
2022/06/07 01:00:47;;;;;;;16.85;6.38;;;26.10;72.90;;;;;;4994539;28;20038;-77
2022/06/07 01:03:14;;;;;;;21.45;7.22;;;26.00;72.90;;;;;;4995047;28;20033;-82
2022/06/07 01:05:40;;;;;;;21.88;7.15;;;26.00;72.40;;;;;;4993733;28;20030;-86
2022/06/07 01:10:53;;;;;;;17.95;6.00;;;26.00;73.70;;;;;;4998815;28;20041;-85
2022/06/07 01:13:23;;;;;;;15.80;5.82;;;25.90;73.80;;;;;;4999313;28;20038;-84
2022/06/07 01:15:48;;;;;;;17.35;5.97;;;25.90;73.80;;;;;;5001779;28;20118;-84
2022/06/07 01:18:16;;;;;;;23.73;6.95;;;25.90;74.00;;;;;;5001969;28;20038;-85
2022/06/07 01:20:42;;;;;;;19.73;6.47;;;25.90;74.10;;;;;;5006153;28;20035;-82
2022/06/07 01:23:09;;;;;;;17.75;6.75;;;25.90;74.30;;;;;;5013269;28;20026;-82
2022/06/07 01:25:37;;;;;;;24.52;6.72;;;25.90;73.60;;;;;;5006773;28;20067;-86
2022/06/07 01:28:04;;;;;;;20.70;7.05;;;25.90;74.30;;;;;;5005745;28;20090;-86
2022/06/07 01:30:31;;;;;;;20.00;6.78;;;25.90;74.50;;;;;;5010685;28;20109;-85
2022/06/07 01:32:57;;;;;;;17.35;6.80;;;25.90;73.90;;;;;;5011587;28;20057;-83
2022/06/07 01:35:23;;;;;;;17.73;6.78;;;25.90;73.80;;;;;;5013528;28;20041;-85
2022/06/07 01:37:49;;;;;;;18.10;6.68;;;25.90;74.00;;;;;;5010942;28;20034;-74
2022/06/07 01:42:59;;;;;;;22.00;6.20;;;25.90;73.80;;;;;;5000632;28;20041;-74
2022/06/07 01:45:25;;;;;;;20.30;6.72;;;25.90;74.40;;;;;;4998041;28;20030;-74
2022/06/07 01:47:51;;;;;;;24.05;7.53;;;25.80;74.60;;;;;;4998654;28;20468;-81
2022/06/07 01:50:18;;;;;;;20.35;6.75;;;25.80;74.90;;;;;;4996208;28;20057;-76
2022/06/07 01:52:44;;;;;;;22.38;6.72;;;25.80;74.70;;;;;;5001423;28;20030;-76
2022/06/07 01:55:09;;;;;;;20.45;6.75;;;25.90;74.70;;;;;;5006196;28;20395;-75
2022/06/07 01:57:35;;;;;;;17.85;7.03;;;25.90;74.40;;;;;;5001960;28;20030;-73
2022/06/07 02:00:04;;;;;;;19.60;6.05;;;25.90;74.20;;;;;;4998658;28;20380;-74
2022/06/07 02:02:30;;;;;;;19.88;6.82;;;26.00;73.40;;;;;;4997273;28;20172;-75
2022/06/07 02:04:57;;;;;;;20.05;6.80;;;26.00;73.90;;;;;;4995641;28;20030;-73
2022/06/07 02:07:23;;;;;;;15.90;6.20;;;26.00;74.10;;;;;;4996597;28;20031;-74
2022/06/07 02:09:48;;;;;;;18.02;7.07;;;26.00;73.80;;;;;;4996513;28;20023;-74
2022/06/07 02:12:16;;;;;;;17.27;7.13;;;26.00;73.80;;;;;;4996896;28;20046;-79
2022/06/07 02:14:42;;;;;;;16.55;6.55;;;25.90;74.10;;;;;;4999694;28;20030;-84
2022/06/07 02:17:08;;;;;;;19.13;6.65;;;26.00;74.00;;;;;;5013647;28;20033;-83
2022/06/07 02:19:35;;;;;;;16.80;7.47;;;25.90;73.90;;;;;;5000528;28;20114;-83
2022/06/07 02:22:01;;;;;;;25.83;7.10;;;25.90;74.20;;;;;;4996436;28;20030;-83
2022/06/07 02:24:27;;;;;;;24.02;6.82;;;25.90;74.50;;;;;;4997027;28;20446;-82
2022/06/07 02:27:03;;;;;;;17.60;7.38;;;25.90;74.20;;;;;;4996329;28;20030;-83
2022/06/07 02:29:33;;;;;;;24.13;7.75;;;25.90;73.90;;;;;;4995290;28;20472;-84
2022/06/07 02:32:05;;;;;;;21.10;7.35;;;25.80;73.50;;;;;;4996604;28;20030;-82
2022/06/07 02:34:34;;;;;;;21.80;7.18;;;25.80;73.10;;;;;;4996248;28;20498;-84
2022/06/07 02:37:03;;;;;;;18.40;7.55;;;25.80;72.90;;;;;;4995320;28;20038;-85
2022/06/07 02:39:30;;;;;;;21.20;7.35;;;25.70;72.50;;;;;;4996763;28;20035;-80
2022/06/07 02:42:00;;;;;;;20.08;8.18;;;25.70;71.80;;;;;;4996126;28;20057;-82
2022/06/07 02:44:25;;;;;;;20.60;7.78;;;25.70;71.40;;;;;;4996554;28;20369;-83
2022/06/07 02:46:51;;;;;;;18.95;7.28;;;25.70;71.10;;;;;;4996164;28;20036;-77
2022/06/07 02:49:18;;;;;;;28.33;8.52;;;25.70;70.80;;;;;;4996108;28;20034;-76
2022/06/07 02:51:43;;;;;;;26.38;9.32;;;25.70;69.80;;;;;;4995524;28;20056;-77
2022/06/07 02:54:10;;;;;;;36.88;10.13;;;25.60;70.70;;;;;;4996015;28;20121;-75
2022/06/07 02:56:36;;;;;;;23.25;9.05;;;25.50;69.70;;;;;;4996257;28;20032;-75
2022/06/07 02:59:01;;;;;;;24.33;9.35;;;25.50;69.50;;;;;;4995877;28;20038;-74
2022/06/07 03:01:29;;;;;;;30.35;8.80;;;25.50;69.10;;;;;;4995665;28;20077;-75
2022/06/07 03:03:57;;;;;;;34.42;9.13;;;25.50;68.90;;;;;;4995747;28;20177;-73
2022/06/07 03:06:23;;;;;;;24.23;8.25;;;25.40;68.70;;;;;;4996130;28;20452;-75
2022/06/07 03:08:49;;;;;;;20.77;7.25;;;25.40;68.80;;;;;;4995723;28;20030;-74
2022/06/07 03:11:14;;;;;;;22.55;7.95;;;25.30;68.80;;;;;;4996229;28;20041;-74
2022/06/07 03:13:40;;;;;;;23.63;7.50;;;25.30;68.80;;;;;;4996689;28;20109;-82
2022/06/07 03:16:06;;;;;;;23.33;7.45;;;25.20;68.60;;;;;;4997275;28;20463;-76
2022/06/07 03:18:32;;;;;;;23.85;8.13;;;25.20;68.70;;;;;;4996825;28;20037;-83
2022/06/07 03:20:57;;;;;;;24.50;7.13;;;25.20;68.50;;;;;;4995464;28;20033;-82
2022/06/07 03:23:23;;;;;;;19.67;6.53;;;25.20;68.10;;;;;;4995703;28;20027;-82
2022/06/07 03:25:49;;;;;;;20.70;6.70;;;25.10;67.80;;;;;;4995436;28;20037;-83
2022/06/07 03:28:16;;;;;;;19.33;6.82;;;25.10;67.70;;;;;;4995440;28;20019;-80
2022/06/07 03:30:42;;;;;;;17.65;7.00;;;25.10;67.70;;;;;;4995053;28;20026;-83
2022/06/07 03:33:11;;;;;;;19.83;6.88;;;25.10;68.00;;;;;;4995125;28;20369;-84
2022/06/07 03:35:38;;;;;;;20.90;6.70;;;25.10;68.10;;;;;;4995237;28;20022;-84
2022/06/07 03:38:06;;;;;;;17.30;6.35;;;25.00;67.90;;;;;;4995040;28;20033;-83
2022/06/07 03:40:44;;;;;;;17.45;6.40;;;25.00;67.50;;;;;;4995185;28;20030;-85
2022/06/07 03:43:10;;;;;;;18.75;5.88;;;25.00;67.50;;;;;;4995156;28;20089;-83
2022/06/07 03:45:36;;;;;;;21.40;6.70;;;24.90;67.50;;;;;;4995315;28;20025;-83
2022/06/07 03:48:02;;;;;;;21.95;6.60;;;24.90;67.70;;;;;;4995016;28;20030;-84
2022/06/07 03:50:27;;;;;;;19.25;6.35;;;25.00;67.20;;;;;;4994957;28;20124;-83
2022/06/07 03:52:53;;;;;;;17.55;7.22;;;24.80;67.00;;;;;;5006004;28;20054;-83
2022/06/07 03:55:19;;;;;;;20.85;6.88;;;24.80;66.80;;;;;;4999189;28;20446;-74
2022/06/07 03:57:45;;;;;;;18.77;6.82;;;24.80;67.10;;;;;;4994527;28;20030;-74
2022/06/07 04:00:12;;;;;;;22.08;6.95;;;24.80;66.80;;;;;;4994320;28;20030;-74
2022/06/07 04:02:38;;;;;;;16.67;6.53;;;24.80;66.60;;;;;;4994746;28;20019;-74
2022/06/07 04:05:04;;;;;;;15.35;6.63;;;24.90;66.40;;;;;;4994214;28;20036;-74
2022/06/07 04:10:15;;;;;;;16.35;6.30;;;24.90;66.20;;;;;;4994492;28;20116;-74
2022/06/07 04:12:41;;;;;;;18.33;6.13;;;25.00;65.70;;;;;;4994220;28;20030;-73
2022/06/07 04:15:07;;;;;;;17.20;6.32;;;25.00;65.40;;;;;;4994139;28;20023;-74
2022/06/07 04:17:32;;;;;;;17.75;6.00;;;25.00;65.00;;;;;;4994411;28;20065;-70
2022/06/07 04:19:58;;;;;;;21.45;7.18;;;25.00;64.40;;;;;;4994165;28;20066;-73
2022/06/07 04:22:24;;;;;;;15.88;5.22;;;25.00;64.10;;;;;;4994212;28;20435;-71
2022/06/07 04:24:50;;;;;;;13.68;5.53;;;25.00;64.00;;;;;;4994117;28;20117;-71
2022/06/07 04:27:16;;;;;;;23.65;6.15;;;25.00;63.70;;;;;;4992426;28;20109;-70
2022/06/07 04:29:42;;;;;;;14.13;5.43;;;25.00;64.00;;;;;;4993894;28;20030;-73
2022/06/07 04:32:08;;;;;;;17.67;5.82;;;25.00;63.60;;;;;;4993920;28;20037;-74
2022/06/07 04:34:33;;;;;;;18.60;5.88;;;25.00;63.90;;;;;;4993679;28;20089;-72
2022/06/07 04:36:59;;;;;;;15.98;5.22;;;25.00;63.80;;;;;;4993726;28;20034;-71
2022/06/07 04:39:25;;;;;;;20.92;6.55;;;25.00;63.90;;;;;;4993447;28;20035;-72
2022/06/07 04:41:50;;;;;;;18.35;5.80;;;25.00;63.80;;;;;;4993622;28;20434;-71
2022/06/07 04:44:16;;;;;;;19.00;6.38;;;25.00;63.80;;;;;;4993263;28;20030;-74
2022/06/07 04:46:42;;;;;;;20.05;6.72;;;25.10;63.70;;;;;;4993211;28;20049;-75
2022/06/07 04:49:08;;;;;;;18.25;5.70;;;25.10;63.60;;;;;;4993598;28;20069;-72
2022/06/07 04:51:36;;;;;;;19.30;5.68;;;25.10;63.60;;;;;;4993164;28;20411;-74
2022/06/07 04:54:03;;;;;;;22.70;6.20;;;25.10;63.50;;;;;;4993610;28;20031;-73
2022/06/07 04:56:31;;;;;;;21.27;5.85;;;25.10;63.50;;;;;;4993687;28;20026;-73
2022/06/07 04:58:59;;;;;;;17.20;5.60;;;25.10;63.50;;;;;;4994177;28;20395;-75
2022/06/07 05:01:26;;;;;;;20.35;5.90;;;25.10;63.40;;;;;;4994312;28;20535;-73
2022/06/07 05:03:53;;;;;;;19.50;7.35;;;25.10;63.50;;;;;;4993485;28;20030;-74
2022/06/07 05:06:34;;;;;;;34.40;14.20;;;25.20;63.40;;;;;;4993649;28;20026;-77
2022/06/07 05:09:06;;;;;;;54.33;24.15;;;25.20;63.10;;;;;;4993645;28;20136;-75
2022/06/07 05:11:32;;;;;;;60.45;25.60;;;25.20;63.20;;;;;;4993907;28;20030;-74
2022/06/07 05:13:59;;;;;;;60.55;27.17;;;25.20;63.00;;;;;;4993707;28;20034;-76
2022/06/07 05:16:26;;;;;;;75.38;32.10;;;25.50;63.00;;;;;;4993495;28;20041;-73
2022/06/07 05:18:53;;;;;;;71.70;32.67;;;25.80;63.00;;;;;;4993342;28;20097;-73
2022/06/07 05:21:21;;;;;;;69.70;29.83;;;26.10;61.40;;;;;;4993638;28;20015;-75
2022/06/07 05:23:47;;;;;;;63.03;27.65;;;26.50;60.60;;;;;;4993385;28;20030;-73
2022/06/07 05:26:17;;;;;;;44.20;21.55;;;27.00;59.80;;;;;;4991996;28;20482;-74
2022/06/07 05:28:43;;;;;;;41.00;17.25;;;27.40;58.60;;;;;;4993305;28;20033;-76
2022/06/07 05:31:10;;;;;;;33.13;15.82;;;27.80;57.90;;;;;;4993382;28;20029;-73
2022/06/07 05:33:36;;;;;;;29.65;14.30;;;28.00;57.30;;;;;;4993386;28;20029;-73
2022/06/07 05:36:03;;;;;;;29.63;10.20;;;28.30;56.30;;;;;;4992722;28;20432;-81
2022/06/07 05:38:28;;;;;;;23.70;10.15;;;28.50;55.30;;;;;;4995713;28;20045;-82
2022/06/07 05:40:54;;;;;;;22.73;7.95;;;28.80;54.50;;;;;;4996883;28;20030;-85
2022/06/07 05:43:20;;;;;;;22.27;8.48;;;29.10;53.60;;;;;;4996760;28;20073;-85
2022/06/07 05:45:50;;;;;;;20.70;7.05;;;29.50;52.90;;;;;;4995992;28;20023;-84
2022/06/07 05:48:17;;;;;;;22.42;7.18;;;29.80;52.30;;;;;;4995542;28;20053;-87
2022/06/07 05:50:44;;;;;;;21.08;6.47;;;30.10;51.40;;;;;;4995756;28;20082;-85
2022/06/07 05:53:10;;;;;;;23.02;6.07;;;30.30;51.00;;;;;;4995440;28;20042;-82
2022/06/07 05:55:37;;;;;;;16.45;6.38;;;30.50;50.50;;;;;;4996343;28;20074;-89
2022/06/07 05:58:03;;;;;;;17.33;5.30;;;30.70;49.00;;;;;;4999173;28;20058;-90
2022/06/07 06:00:30;;;;;;;14.60;5.13;;;30.90;49.20;;;;;;5000702;28;20364;-84
2022/06/07 06:02:56;;;;;;;12.63;5.63;;;31.10;48.80;;;;;;5000458;28;20041;-83
2022/06/07 06:05:22;;;;;;;16.67;4.57;;;31.20;47.80;;;;;;4997505;28;20036;-77
2022/06/07 06:10:32;;;;;;;21.80;5.35;;;31.60;46.90;;;;;;4996692;28;20506;-76
2022/06/07 06:12:58;;;;;;;16.65;4.63;;;31.70;47.70;;;;;;4996229;28;20030;-77
2022/06/07 06:15:24;;;;;;;15.35;4.55;;;31.80;47.10;;;;;;4995762;28;20046;-77
2022/06/07 06:17:49;;;;;;;15.52;5.47;;;31.80;47.30;;;;;;4995820;28;20054;-78
2022/06/07 06:20:15;;;;;;;15.25;5.07;;;31.80;47.30;;;;;;4995941;28;20037;-77
2022/06/07 06:22:41;;;;;;;16.25;5.28;;;31.70;46.40;;;;;;4996013;28;20387;-76
2022/06/07 06:25:08;;;;;;;23.10;5.55;;;31.60;45.80;;;;;;4995904;28;20034;-76
2022/06/07 06:27:35;;;;;;;14.77;4.40;;;31.70;45.70;;;;;;4996671;28;20026;-76
2022/06/07 06:30:05;;;;;;;15.90;5.18;;;31.90;45.30;;;;;;4996303;28;20022;-78
2022/06/07 06:32:31;;;;;;;16.05;4.13;;;31.90;44.80;;;;;;4995718;28;20027;-76
2022/06/07 06:34:57;;;;;;;18.02;4.88;;;32.10;44.90;;;;;;4995831;28;20133;-76
2022/06/07 06:37:23;;;;;;;19.08;4.80;;;32.30;44.70;;;;;;4996144;28;20033;-76
2022/06/07 06:39:48;;;;;;;14.35;4.72;;;32.30;44.70;;;;;;4995801;28;20041;-75
2022/06/07 06:42:15;;;;;;;13.68;4.10;;;31.90;44.40;;;;;;4996057;28;20022;-78
2022/06/07 06:44:40;;;;;;;15.55;4.13;;;31.80;44.30;;;;;;4994735;28;20124;-80
2022/06/07 06:47:07;;;;;;;20.70;5.22;;;32.00;44.00;;;;;;4995909;28;20101;-79
2022/06/07 06:49:33;;;;;;;22.73;4.85;;;32.20;43.90;;;;;;4995859;28;20026;-77
2022/06/07 06:51:59;;;;;;;22.25;4.90;;;32.40;44.90;;;;;;4995734;28;20384;-77
2022/06/07 06:54:25;;;;;;;21.70;5.68;;;32.60;43.40;;;;;;4996320;28;20034;-76
2022/06/07 06:56:51;;;;;;;18.77;5.80;;;32.80;43.10;;;;;;4996479;28;20034;-76
2022/06/07 06:59:18;;;;;;;23.45;4.88;;;32.70;42.90;;;;;;4995815;28;20045;-76
2022/06/07 07:01:44;;;;;;;15.85;5.57;;;32.80;42.60;;;;;;4995649;28;20464;-76
2022/06/07 07:04:14;;;;;;;20.20;4.85;;;32.90;42.90;;;;;;4995268;28;20109;-73
2022/06/07 07:06:40;;;;;;;20.70;6.38;;;33.00;41.90;;;;;;4995132;28;20652;-72
2022/06/07 07:09:07;;;;;;;19.73;4.78;;;32.90;41.90;;;;;;4994767;28;20114;-74
2022/06/07 07:11:37;;;;;;;17.23;4.78;;;32.80;42.60;;;;;;4995026;28;20467;-72
2022/06/07 07:14:04;;;;;;;14.75;4.07;;;32.80;41.80;;;;;;4994885;28;20105;-74
2022/06/07 07:16:32;;;;;;;16.90;4.22;;;32.80;41.70;;;;;;4994992;28;20022;-72
2022/06/07 07:19:00;;;;;;;13.55;3.80;;;32.90;41.50;;;;;;4995244;28;20487;-71
2022/06/07 07:21:29;;;;;;;14.15;4.35;;;32.80;41.40;;;;;;4995048;28;20042;-74
2022/06/07 07:23:57;;;;;;;21.52;4.63;;;32.80;42.00;;;;;;4994962;28;20113;-75
2022/06/07 07:26:25;;;;;;;17.52;4.60;;;32.90;41.40;;;;;;4994909;28;20478;-75
2022/06/07 07:28:52;;;;;;;14.20;3.67;;;32.90;41.20;;;;;;4994545;28;20448;-74
2022/06/07 07:31:24;;;;;;;13.70;3.92;;;33.00;40.90;;;;;;4994260;28;20392;-74
2022/06/07 07:33:50;;;;;;;13.52;4.45;;;33.00;40.70;;;;;;4992893;28;20506;-73
2022/06/07 07:36:17;;;;;;;14.13;4.00;;;32.60;41.00;;;;;;4994563;28;20026;-74
2022/06/07 07:38:43;;;;;;;17.65;5.25;;;32.60;41.30;;;;;;4994409;28;20177;-74
2022/06/07 07:41:20;;;;;;;13.98;4.22;;;32.70;41.30;;;;;;4994170;28;20524;-75
2022/06/07 07:43:47;;;;;;;17.98;10.40;;;32.70;41.00;;;;;;4994244;28;20038;-75
2022/06/07 07:46:13;;;;;;;18.50;6.93;;;32.60;40.60;;;;;;4994199;28;20391;-74
2022/06/07 07:48:40;;;;;;;12.80;4.47;;;32.60;40.80;;;;;;4994330;28;20034;-73
2022/06/07 07:51:08;;;;;;;10.18;3.67;;;32.60;40.40;;;;;;4993984;28;20479;-72
2022/06/07 07:53:34;;;;;;;13.80;3.55;;;32.70;40.00;;;;;;4994318;28;20084;-73
2022/06/07 07:56:00;;;;;;;18.67;4.50;;;32.60;40.20;;;;;;4994203;28;20479;-72
2022/06/07 07:58:26;;;;;;;11.18;3.55;;;32.70;40.40;;;;;;4992807;28;20116;-74
2022/06/07 08:00:51;;;;;;;14.45;3.67;;;32.70;40.30;;;;;;4994001;28;20029;-71
2022/06/07 08:03:19;;;;;;;12.82;3.53;;;32.60;39.30;;;;;;4994023;28;20364;-73
2022/06/07 08:05:45;;;;;;;12.23;4.03;;;32.50;39.40;;;;;;4994416;28;20175;-73
2022/06/07 08:08:11;;;;;;;9.43;3.35;;;32.60;39.70;;;;;;4994046;28;20132;-75
2022/06/07 08:10:38;;;;;;;12.65;4.47;;;32.60;38.80;;;;;;4993783;28;20041;-74
2022/06/07 08:13:05;;;;;;;14.35;4.93;;;32.60;38.90;;;;;;4993986;28;20037;-73
2022/06/07 08:15:33;;;;;;;16.83;4.50;;;32.60;39.30;;;;;;4993916;28;20411;-72
2022/06/07 08:18:02;;;;;;;13.38;3.10;;;32.60;39.10;;;;;;4993846;28;20026;-74
2022/06/07 08:20:30;;;;;;;14.75;3.28;;;32.50;37.60;;;;;;4993099;28;20072;-74
2022/06/07 08:22:56;;;;;;;10.43;3.25;;;32.30;36.70;;;;;;4993927;28;20117;-76
2022/06/07 08:25:22;;;;;;;10.60;2.42;;;32.20;35.90;;;;;;4993990;28;20046;-76
2022/06/07 08:27:48;;;;;;;8.88;2.42;;;32.20;35.60;;;;;;4993930;28;20026;-75
2022/06/07 08:30:15;;;;;;;5.47;2.17;;;32.10;34.60;;;;;;4993573;28;20105;-76
2022/06/07 08:32:40;;;;;;;6.55;2.45;;;32.00;34.40;;;;;;4992433;28;20030;-72
2022/06/07 08:37:56;;;;;;;11.13;2.20;;;31.80;35.10;;;;;;4993697;28;20093;-72
2022/06/07 08:40:35;;;;;;;7.65;2.40;;;31.60;34.80;;;;;;4993125;28;20043;-73
2022/06/07 08:43:23;;;;;;;8.75;3.28;;;31.40;35.10;;;;;;4993620;28;20096;-73
2022/06/07 08:45:49;;;;;;;9.88;2.88;;;31.30;36.00;;;;;;4993386;28;20050;-74
2022/06/07 08:48:18;;;;;;;11.73;2.88;;;31.30;36.30;;;;;;4993267;28;20384;-73
2022/06/07 08:50:48;;;;;;;11.20;3.08;;;31.30;36.20;;;;;;4993197;28;20042;-72
2022/06/07 08:53:26;;;;;;;15.05;3.42;;;31.30;35.90;;;;;;4993001;28;20034;-73
2022/06/07 08:55:57;;;;;;;12.57;4.20;;;31.30;35.80;;;;;;4991661;28;20026;-73
2022/06/07 08:58:25;;;;;;;9.50;2.90;;;31.30;36.60;;;;;;4993134;28;20034;-73
2022/06/07 09:00:57;;;;;;;10.43;2.05;;;31.30;35.90;;;;;;4992903;28;20419;-73
2022/06/07 09:03:32;;;;;;;8.50;2.00;;;31.20;34.40;;;;;;4993241;28;20088;-74
2022/06/07 09:06:01;;;;;;;8.57;1.92;;;31.20;33.90;;;;;;4993167;28;20038;-72
2022/06/07 09:08:42;;;;;;;11.13;2.10;;;31.10;33.40;;;;;;4993274;28;20026;-72
2022/06/07 09:14:00;;;;;;;6.78;1.85;;;31.10;33.00;;;;;;4993586;28;20037;-75
2022/06/07 09:16:26;;;;;;;7.45;1.90;;;31.20;32.80;;;;;;4992819;28;20455;-72
2022/06/07 09:18:52;;;;;;;9.43;2.88;;;31.10;32.40;;;;;;4992816;28;20097;-72
2022/06/07 09:21:30;;;;;;;6.70;1.80;;;31.10;32.80;;;;;;4993005;28;20018;-73
2022/06/07 09:23:57;;;;;;;8.88;2.78;;;31.10;33.30;;;;;;4993448;28;20034;-75
2022/06/07 09:26:36;;;;;;;7.00;2.05;;;31.10;33.30;;;;;;4993145;28;20022;-75
2022/06/07 09:29:13;;;;;;;5.75;2.13;;;31.10;33.00;;;;;;4993145;28;20495;-74
2022/06/07 09:31:41;;;;;;;7.80;2.78;;;31.00;33.50;;;;;;4995098;28;20026;-74
2022/06/07 09:34:09;;;;;;;8.07;2.65;;;31.00;33.40;;;;;;4996933;28;20117;-73
2022/06/07 09:36:43;;;;;;;10.60;3.58;;;31.10;34.20;;;;;;4996845;28;20022;-72
2022/06/07 09:39:16;;;;;;;10.02;3.17;;;31.20;35.80;;;;;;4996813;28;20026;-72
2022/06/07 09:41:57;;;;;;;11.15;2.50;;;31.20;35.50;;;;;;4996594;28;20023;-72
2022/06/07 09:44:33;;;;;;;11.52;3.08;;;31.30;36.30;;;;;;4996786;28;20030;-74
2022/06/07 09:47:14;;;;;;;6.70;3.22;;;31.30;36.20;;;;;;4996425;28;20109;-74
2022/06/07 09:49:51;;;;;;;10.30;2.60;;;31.40;36.10;;;;;;4996245;28;20061;-73
2022/06/07 09:52:36;;;;;;;9.57;2.70;;;31.40;35.90;;;;;;4996319;28;20058;-72
2022/06/07 09:55:13;;;;;;;8.88;2.42;;;31.50;35.50;;;;;;4996915;28;20321;-74
2022/06/07 09:57:52;;;;;;;7.55;2.88;;;31.50;34.10;;;;;;4994989;28;20076;-72
2022/06/07 10:00:36;;;;;;;10.23;2.45;;;31.60;35.10;;;;;;4996092;28;20041;-72
2022/06/07 10:03:26;;;;;;;11.35;2.38;;;31.60;33.80;;;;;;4996402;28;20022;-73
2022/06/07 10:06:17;;;;;;;9.13;2.60;;;31.60;34.70;;;;;;4994691;28;20113;-74
2022/06/07 10:08:49;;;;;;;9.18;2.72;;;31.60;34.30;;;;;;4996043;28;20030;-72
2022/06/07 10:11:21;;;;;;;7.78;2.63;;;31.70;34.00;;;;;;4996099;28;20022;-73
2022/06/07 10:14:15;;;;;;;13.45;2.25;;;31.60;35.10;;;;;;4995887;28;20042;-75
2022/06/07 10:16:56;;;;;;;13.65;2.65;;;31.70;35.40;;;;;;4996277;28;20353;-75
2022/06/07 10:19:34;;;;;;;8.50;2.30;;;31.70;35.40;;;;;;4995980;28;20038;-74
2022/06/07 10:22:28;;;;;;;15.35;3.10;;;31.80;34.50;;;;;;4995950;28;20077;-73
2022/06/07 10:24:53;;;;;;;;;;;31.90;35.90;;;;;;4996126;28;20031;-74
2022/06/07 10:27:23;;;;;;;10.02;2.20;;;31.90;34.20;;;;;;4996007;28;19913;-73
2022/06/07 10:29:51;;;;;;;5.03;2.17;;;32.00;34.40;;;;;;4995892;28;20376;-75
2022/06/07 10:32:49;;;;;;;9.93;2.75;;;32.00;34.00;;;;;;4996262;28;20022;-75
2022/06/07 10:35:15;;;;;;;14.80;2.63;;;32.00;34.70;;;;;;4995762;28;20027;-72
2022/06/07 10:37:56;;;;;;;10.02;2.17;;;32.00;33.40;;;;;;4995656;28;20117;-72
2022/06/07 10:40:41;;;;;;;5.65;2.00;;;32.10;32.60;;;;;;4995450;28;20058;-72
2022/06/07 10:43:29;;;;;;;6.32;2.03;;;32.10;32.40;;;;;;4994916;28;20022;-72
2022/06/07 10:46:00;;;;;;;7.20;1.90;;;32.20;32.50;;;;;;4995523;28;20073;-71
2022/06/07 10:48:33;;;;;;;9.07;2.20;;;32.20;32.20;;;;;;4995490;28;20030;-72
2022/06/07 10:54:41;;;;;;;7.85;2.75;;;32.30;29.90;;;;;;4993094;28;20092;-75
2022/06/07 10:57:22;;;;;;;6.28;2.00;;;32.30;30.00;;;;;;4995744;28;20030;-74
2022/06/07 10:59:51;;;;;;;9.20;2.35;;;32.30;30.00;;;;;;4995172;28;20041;-73
2022/06/07 11:02:29;;;;;;;7.30;2.05;;;32.20;29.70;;;;;;4995493;28;20464;-72
2022/06/07 11:11:15;;;;;;;4.63;2.00;;;32.40;29.90;;;;;;4995395;28;20076;-72
2022/06/07 11:14:09;;;;;;;4.43;1.75;;;32.50;29.50;;;;;;4995001;28;20022;-72
2022/06/07 11:16:56;;;;;;;4.88;1.60;;;32.50;28.90;;;;;;4995161;28;20026;-72
2022/06/07 11:19:22;;;;;;;7.05;1.95;;;32.50;28.80;;;;;;4993338;28;20046;-74
2022/06/07 11:21:57;;;;;;;6.13;1.90;;;32.50;29.20;;;;;;4994991;28;20471;-74
2022/06/07 11:24:29;;;;;;;4.72;1.52;;;32.60;28.60;;;;;;4994942;28;20125;-76
2022/06/07 11:26:55;;;;;;;4.40;1.70;;;32.60;29.20;;;;;;4995397;28;20412;-74
2022/06/07 11:29:27;;;;;;;7.72;2.38;;;32.60;29.20;;;;;;4994672;28;20046;-74
2022/06/07 11:31:53;;;;;;;8.30;1.87;;;32.70;29.50;;;;;;4995110;28;20018;-74
2022/06/07 11:34:31;;;;;;;5.47;1.55;;;32.80;29.20;;;;;;4994487;28;20041;-75
2022/06/07 11:37:20;;;;;;;6.13;1.40;;;32.80;27.90;;;;;;4994839;28;20383;-73
2022/06/07 11:39:55;;;;;;;4.43;1.77;;;32.90;28.40;;;;;;4988964;28;20046;-75
2022/06/07 11:42:29;;;;;;;4.57;1.88;;;32.90;28.90;;;;;;4994788;28;20105;-74
2022/06/07 11:45:03;;;;;;;5.47;2.05;;;33.00;28.80;;;;;;4994666;28;20023;-75
2022/06/07 11:48:09;;;;;;;12.07;2.60;;;33.00;29.20;;;;;;4994752;28;20036;-76
2022/06/07 11:50:52;;;;;;;6.55;1.95;;;33.10;29.60;;;;;;4994143;28;20046;-76
2022/06/07 11:53:31;;;;;;;6.53;1.88;;;33.10;30.20;;;;;;4994794;28;20063;-76
2022/06/07 11:56:21;;;;;;;9.98;2.03;;;33.20;30.70;;;;;;4993763;28;20415;-73
2022/06/07 11:58:52;;;;;;;9.80;1.90;;;33.20;30.30;;;;;;4994407;28;20049;-75
2022/06/07 12:01:48;;;;;;;14.35;2.25;;;33.10;30.40;;;;;;4994254;28;20498;-73
2022/06/07 12:04:37;;;;;;;10.10;1.90;;;33.10;30.40;;;;;;4979772;28;20049;-75
2022/06/07 12:07:22;;;;;;;7.55;2.20;;;33.10;31.10;;;;;;4994077;28;20074;-75
2022/06/07 12:09:52;;;;;;;11.88;3.33;;;33.10;31.60;;;;;;4994194;28;20037;-74
2022/06/07 12:12:23;;;;;;;7.72;2.60;;;33.10;31.90;;;;;;4994074;28;20088;-74
2022/06/07 12:14:53;;;;;;;10.35;2.45;;;33.10;32.50;;;;;;4993895;28;20026;-73
2022/06/07 12:17:21;;;;;;;8.80;2.50;;;33.10;32.40;;;;;;4993933;28;20033;-76
2022/06/07 12:19:47;;;;;;;8.52;2.40;;;33.10;33.30;;;;;;4993625;28;20046;-76
2022/06/07 12:22:16;;;;;;;9.85;2.38;;;33.10;32.90;;;;;;4993804;28;20021;-75
2022/06/07 12:25:09;;;;;;;9.00;2.20;;;33.20;32.60;;;;;;4993988;28;20061;-75
2022/06/07 12:27:54;;;;;;;15.47;2.60;;;33.10;32.00;;;;;;4993826;28;20121;-73
2022/06/07 12:30:20;;;;;;;11.48;2.50;;;33.20;31.80;;;;;;4992818;28;20023;-75
2022/06/07 12:32:48;;;;;;;10.57;2.60;;;33.20;31.80;;;;;;4994284;28;20089;-73
2022/06/07 12:35:22;;;;;;;8.60;2.08;;;33.20;31.70;;;;;;4994041;28;20053;-76
2022/06/07 12:37:53;;;;;;;8.65;2.10;;;33.20;31.60;;;;;;4995888;28;20112;-73
2022/06/07 12:40:32;;;;;;;9.15;2.28;;;33.20;32.10;;;;;;4993605;28;20094;-76
2022/06/07 12:42:59;;;;;;;10.05;2.17;;;33.20;32.80;;;;;;4993230;28;20038;-76
2022/06/07 12:45:34;;;;;;;8.65;2.20;;;33.20;32.20;;;;;;4993682;28;20092;-77
2022/06/07 12:48:22;;;;;;;7.65;2.25;;;33.00;33.00;;;;;;4993222;28;20022;-76
2022/06/07 12:50:48;;;;;;;11.23;2.08;;;33.00;33.30;;;;;;5007590;28;20054;-75
2022/06/07 12:53:26;;;;;;;9.00;2.70;;;33.00;33.30;;;;;;4993414;28;20029;-76
2022/06/07 12:56:13;;;;;;;12.15;2.65;;;33.00;33.60;;;;;;4993207;28;20030;-75
2022/06/07 12:58:49;;;;;;;9.10;2.38;;;33.10;33.80;;;;;;4993034;28;20487;-74
2022/06/07 13:01:38;;;;;;;11.32;2.35;;;33.20;33.50;;;;;;4993253;28;20486;-75
2022/06/07 13:04:18;;;;;;;9.98;2.30;;;33.20;34.00;;;;;;4993411;28;20522;-74
2022/06/07 13:07:30;;;;;;;9.70;2.17;;;33.10;34.40;;;;;;4995305;28;20018;-74
2022/06/07 13:10:01;;;;;;;10.93;2.00;;;33.00;34.50;;;;;;4978854;28;20049;-73
2022/06/07 13:12:34;;;;;;;8.75;2.38;;;33.00;34.60;;;;;;4997010;28;20022;-73
2022/06/07 13:15:00;;;;;;;9.25;2.75;;;33.10;35.40;;;;;;4997121;28;20475;-74
2022/06/07 13:17:39;;;;;;;18.17;8.55;;;33.10;35.30;;;;;;4995837;28;20109;-74
2022/06/07 13:20:09;;;;;;;12.73;2.90;;;33.10;35.80;;;;;;4996879;28;20091;-73